createdAt,value
2023-12-14T00:01:27.677Z,97878.66
2023-12-14T00:04:12.895Z,97873.66
2023-12-14T00:06:58.071Z,97879.69
2023-12-14T00:09:43.090Z,97890.63
2023-12-14T00:12:28.232Z,97885.91
2023-12-14T00:15:13.441Z,97890.59
2023-12-14T00:17:58.387Z,97884.16
2023-12-14T00:20:43.160Z,97892.72
2023-12-14T00:23:28.240Z,97882.19
2023-12-14T00:26:13.185Z,97869.72
2023-12-14T00:29:01.569Z,97883.97
2023-12-14T00:31:47.509Z,97867.38
2023-12-14T00:34:32.160Z,97877.09
2023-12-14T00:37:17.280Z,97877.34
2023-12-14T00:40:02.653Z,97864.28
2023-12-14T00:42:47.819Z,97877.31
2023-12-14T00:45:32.670Z,97848.47
2023-12-14T00:48:17.783Z,97855.63
2023-12-14T00:51:02.963Z,97853.88
2023-12-14T00:53:48.017Z,97856.03
2023-12-14T00:56:33.041Z,97840.41
2023-12-14T00:59:17.946Z,97842.53
2023-12-14T01:02:02.915Z,97842.88
2023-12-14T01:04:47.924Z,97829.25
2023-12-14T01:07:32.663Z,97836.25
2023-12-14T01:10:17.555Z,97826.72
2023-12-14T01:13:02.649Z,97817.75
2023-12-14T01:15:47.546Z,97836.81
2023-12-14T01:18:32.713Z,97838.59
2023-12-14T01:21:17.695Z,97812.47
2023-12-14T01:24:02.368Z,97836.81
2023-12-14T01:26:47.140Z,97831.38
2023-12-14T01:29:32.147Z,97835.47
2023-12-14T01:32:17.018Z,97828.47
2023-12-14T01:35:02.114Z,97825.38
2023-12-14T01:37:46.677Z,97826.25
2023-12-14T01:40:32.097Z,97809.81
2023-12-14T01:43:17.127Z,97822.69
2023-12-14T01:46:02.343Z,97821.91
2023-12-14T01:48:47.192Z,97819.34
2023-12-14T01:51:34.253Z,97809.00
2023-12-14T01:54:18.840Z,97813.31
2023-12-14T01:57:03.872Z,97798.06
2023-12-14T01:59:48.582Z,97800.78
2023-12-14T02:02:36.119Z,97799.97
2023-12-14T02:05:22.003Z,97793.94
2023-12-14T02:08:07.511Z,97786.38
2023-12-14T02:10:52.649Z,97792.19
2023-12-14T02:13:37.566Z,97783.00
2023-12-14T02:16:22.718Z,97765.47
2023-12-14T02:19:07.933Z,97763.94
2023-12-14T02:21:52.535Z,97766.06
2023-12-14T02:24:37.870Z,97757.69
2023-12-14T02:27:22.543Z,97761.44
2023-12-14T02:30:07.642Z,97756.59
2023-12-14T02:32:52.604Z,97757.22
2023-12-14T02:35:37.443Z,97760.34
2023-12-14T02:38:22.489Z,97760.97
2023-12-14T02:41:07.294Z,97758.41
2023-12-14T02:43:52.509Z,97753.19
2023-12-14T02:46:37.278Z,97764.69
2023-12-14T02:49:22.903Z,97746.34
2023-12-14T02:52:07.691Z,97746.53
2023-12-14T02:54:52.613Z,97737.00
2023-12-14T02:57:37.498Z,97732.16
2023-12-14T03:01:12.482Z,97739.59
2023-12-14T03:03:57.461Z,97719.94
2023-12-14T03:06:42.186Z,97732.22
2023-12-14T03:09:27.160Z,97730.63
2023-12-14T03:12:12.417Z,97722.47
2023-12-14T03:14:57.309Z,97729.84
2023-12-14T03:17:42.514Z,97715.25
2023-12-14T03:20:27.654Z,97706.47
2023-12-14T03:23:12.741Z,97724.97
2023-12-14T03:25:57.460Z,97727.66
2023-12-14T03:28:42.339Z,97715.81
2023-12-14T03:31:27.081Z,97702.16
2023-12-14T03:34:12.914Z,97696.38
2023-12-14T03:36:58.252Z,97711.28
2023-12-14T03:39:42.904Z,97714.41
2023-12-14T03:42:28.094Z,97703.91
2023-12-14T03:45:13.032Z,97713.84
2023-12-14T03:47:57.979Z,97689.25
2023-12-14T03:50:42.825Z,97696.44
2023-12-14T03:53:28.076Z,97700.16
2023-12-14T03:56:13.393Z,97686.53
2023-12-14T03:58:58.608Z,97700.34
2023-12-14T04:01:43.392Z,97704.09
2023-12-14T04:04:28.313Z,97683.84
2023-12-14T04:07:13.061Z,97698.38
2023-12-14T04:09:58.052Z,97694.16
2023-12-14T04:12:42.920Z,97699.94
2023-12-14T04:15:28.424Z,97694.31
2023-12-14T04:18:13.136Z,97690.19
2023-12-14T04:20:57.876Z,97698.38
2023-12-14T04:23:43.169Z,97696.06
2023-12-14T04:26:28.663Z,97703.06
2023-12-14T04:29:13.548Z,97698.81
2023-12-14T04:31:58.610Z,97681.44
2023-12-14T04:34:43.522Z,97684.41
2023-12-14T04:37:28.375Z,97697.97
2023-12-14T04:40:14.646Z,97694.50
2023-12-14T04:42:59.430Z,97678.75
2023-12-14T04:45:44.825Z,97672.91
2023-12-14T04:48:30.069Z,97675.81
2023-12-14T04:51:14.740Z,97697.03
2023-12-14T04:53:59.745Z,97683.25
2023-12-14T04:56:47.690Z,97695.34
2023-12-14T04:59:32.930Z,97688.91
2023-12-14T05:02:17.552Z,97681.44
2023-12-14T05:05:03.092Z,97694.31
2023-12-14T05:07:48.535Z,97687.66
2023-12-14T05:10:35.596Z,97690.41
2023-12-14T05:13:22.314Z,97689.78
2023-12-14T05:16:07.526Z,97680.03
2023-12-14T05:18:52.331Z,97663.72
2023-12-14T05:21:37.134Z,97678.69
2023-12-14T05:24:21.810Z,97674.03
2023-12-14T05:27:06.983Z,97671.16
2023-12-14T05:29:52.025Z,97680.88
2023-12-14T05:32:37.225Z,97674.03
2023-12-14T05:35:22.581Z,97687.72
2023-12-14T05:38:07.479Z,97688.13
2023-12-14T05:40:52.592Z,97681.44
2023-12-14T05:43:37.905Z,97684.78
2023-12-14T05:46:23.661Z,97685.38
2023-12-14T05:49:08.321Z,97679.34
2023-12-14T05:51:53.510Z,97684.56
2023-12-14T05:54:40.265Z,97679.88
2023-12-14T05:57:25.627Z,97686.72
2023-12-14T06:00:11.242Z,97688.50
2023-12-14T06:02:56.456Z,97677.41
2023-12-14T06:05:41.397Z,97690.19
2023-12-14T06:08:26.161Z,97692.91
2023-12-14T06:11:11.361Z,97670.34
2023-12-14T06:13:56.565Z,97664.13
2023-12-14T06:16:41.495Z,97687.47
2023-12-14T06:19:35.704Z,97666.50
2023-12-14T06:22:20.669Z,97691.94
2023-12-14T06:25:18.896Z,97689.22
2023-12-14T06:28:19.660Z,97675.38
2023-12-14T06:39:27.130Z,97683.34
2023-12-14T06:46:08.431Z,97664.47
2023-12-14T06:53:29.581Z,97645.78
2023-12-14T06:56:58.439Z,97655.53
2023-12-14T07:00:39.991Z,97655.13
2023-12-14T07:03:56.066Z,97677.09
2023-12-14T07:10:06.885Z,97667.97
2023-12-14T07:13:54.342Z,97680.78
2023-12-14T07:17:58.803Z,97655.16
2023-12-14T07:25:05.846Z,97675.97
2023-12-14T07:28:45.125Z,97675.38
2023-12-14T07:32:29.001Z,97675.53
2023-12-14T07:35:16.291Z,97690.09
2023-12-14T07:38:10.981Z,97674.00
2023-12-14T07:41:03.838Z,97649.34
2023-12-14T07:43:59.128Z,97664.50
2023-12-14T07:46:46.542Z,97698.88
2023-12-14T07:50:09.280Z,97680.16
2023-12-14T08:02:01.268Z,97700.41
2023-12-14T08:05:32.086Z,97691.13
2023-12-14T08:08:44.605Z,97666.25
2023-12-14T08:11:39.961Z,97714.63
2023-12-14T08:14:30.436Z,97704.94
2023-12-14T08:17:26.089Z,97722.59
2023-12-14T08:20:16.859Z,97716.75
2023-12-14T08:23:49.047Z,97677.47
2023-12-14T08:27:02.570Z,97706.59
2023-12-14T08:29:50.851Z,97729.72
2023-12-14T08:32:50.432Z,97704.88
2023-12-14T08:36:08.971Z,97729.84
2023-12-14T08:38:55.327Z,97688.88
2023-12-14T08:41:42.140Z,97736.06
2023-12-14T08:44:29.190Z,97732.78
2023-12-14T08:47:56.995Z,97724.38
2023-12-14T08:53:53.303Z,97702.06
2023-12-14T08:56:48.913Z,97683.41
2023-12-14T08:59:39.834Z,97678.97
2023-12-14T09:02:43.534Z,97684.97
2023-12-14T09:05:59.443Z,97725.81
2023-12-14T09:08:51.631Z,97723.28
2023-12-14T09:11:39.218Z,97734.97
2023-12-14T09:14:24.602Z,97708.72
2023-12-14T09:17:09.813Z,97704.25
2023-12-14T09:19:55.179Z,97705.38
2023-12-14T09:23:11.158Z,97732.25
2023-12-14T09:29:27.857Z,97708.72
2023-12-14T09:32:40.744Z,97742.94
2023-12-14T09:35:25.672Z,97728.13
2023-12-14T09:41:25.766Z,97723.69
2023-12-14T09:44:11.309Z,97733.97
2023-12-14T09:46:58.274Z,97728.50
2023-12-14T09:49:45.209Z,97730.16
2023-12-14T09:52:30.372Z,97736.16
2023-12-14T09:55:15.277Z,97741.97
2023-12-14T09:58:02.942Z,97732.94
2023-12-14T10:00:48.349Z,97730.44
2023-12-14T10:03:36.484Z,97710.03
2023-12-14T10:06:21.588Z,97707.69
2023-12-14T10:09:14.069Z,97720.69
2023-12-14T10:12:07.158Z,97729.13
2023-12-14T10:15:04.635Z,97724.16
2023-12-14T10:17:57.887Z,97721.03
2023-12-14T10:20:45.172Z,97716.81
2023-12-14T10:23:30.509Z,97727.31
2023-12-14T10:26:27.681Z,97712.34
2023-12-14T10:29:15.462Z,97716.91
2023-12-14T10:32:00.860Z,97729.50
2023-12-14T10:34:49.737Z,97737.75
2023-12-14T10:37:43.320Z,97723.00
2023-12-14T10:40:29.457Z,97746.03
2023-12-14T10:43:21.621Z,97740.06
2023-12-14T10:46:12.495Z,97744.44
2023-12-14T10:48:57.877Z,97728.81
2023-12-14T10:51:49.131Z,97731.75
2023-12-14T10:54:37.905Z,97724.09
2023-12-14T10:57:22.886Z,97737.28
2023-12-14T11:00:14.008Z,97745.25
2023-12-14T11:03:00.529Z,97745.75
2023-12-14T11:05:45.547Z,97747.19
2023-12-14T11:08:34.100Z,97753.34
2023-12-14T11:11:21.043Z,97751.88
2023-12-14T11:14:10.210Z,97772.16
2023-12-14T11:17:06.990Z,97782.13
2023-12-14T11:19:54.436Z,97789.75
2023-12-14T11:22:46.031Z,97781.28
2023-12-14T11:25:38.846Z,97773.28
2023-12-14T11:28:28.310Z,97790.81
2023-12-14T11:31:14.107Z,97795.22
2023-12-14T11:34:03.809Z,97793.31
2023-12-14T11:36:49.653Z,97804.31
2023-12-14T11:39:34.438Z,97792.78
2023-12-14T11:42:19.437Z,97797.91
2023-12-14T11:45:04.608Z,97804.47
2023-12-14T11:47:49.642Z,97814.03
2023-12-14T11:50:35.036Z,97812.94
2023-12-14T11:53:20.333Z,97816.63
2023-12-14T11:56:06.328Z,97809.66
2023-12-14T11:58:51.517Z,97804.06
2023-12-14T12:01:40.603Z,97832.19
2023-12-14T12:04:26.489Z,97836.66
2023-12-14T12:07:12.586Z,97846.50
2023-12-14T12:09:57.614Z,97830.19
2023-12-14T12:12:45.869Z,97837.78
2023-12-14T12:15:36.478Z,97838.00
2023-12-14T12:18:21.266Z,97855.97
2023-12-14T12:21:07.003Z,97842.38
2023-12-14T12:23:52.422Z,97857.97
2023-12-14T12:26:37.452Z,97849.66
2023-12-14T12:29:23.175Z,97851.44
2023-12-14T12:32:08.560Z,97857.47
2023-12-14T12:34:54.379Z,97863.50
2023-12-14T12:37:40.007Z,97854.34
2023-12-14T12:40:30.388Z,97850.09
2023-12-14T12:43:14.994Z,97864.72
2023-12-14T12:45:59.946Z,97877.84
2023-12-14T12:48:47.464Z,97875.06
2023-12-14T12:51:33.082Z,97881.72
2023-12-14T12:54:17.953Z,97875.53
2023-12-14T12:57:07.708Z,97880.19
2023-12-14T12:59:54.116Z,97899.13
2023-12-14T13:02:43.488Z,97906.97
2023-12-14T13:05:28.766Z,97898.00
2023-12-14T13:08:13.501Z,97908.72
2023-12-14T13:10:58.510Z,97917.91
2023-12-14T13:13:45.390Z,97913.63
2023-12-14T13:16:31.178Z,97906.56
2023-12-14T13:19:16.520Z,97921.06
2023-12-14T13:22:02.494Z,97909.16
2023-12-14T13:24:47.381Z,97912.47
2023-12-14T13:27:32.775Z,97931.44
2023-12-14T13:30:18.820Z,97941.78
2023-12-14T13:33:05.982Z,97930.06
2023-12-14T13:35:51.121Z,97934.38
2023-12-14T13:38:37.047Z,97955.84
2023-12-14T13:41:22.265Z,97958.38
2023-12-14T13:44:07.344Z,97960.53
2023-12-14T13:46:52.785Z,97954.09
2023-12-14T13:49:38.203Z,97976.53
2023-12-14T13:52:23.015Z,97964.66
2023-12-14T13:55:07.948Z,97979.66
2023-12-14T13:57:53.018Z,97980.28
2023-12-14T14:00:38.035Z,97992.00
2023-12-14T14:03:23.246Z,98000.97
2023-12-14T14:06:08.376Z,98013.09
2023-12-14T14:08:53.799Z,97999.22
2023-12-14T14:11:38.625Z,98004.28
2023-12-14T14:14:26.489Z,98012.88
2023-12-14T14:17:11.921Z,98019.13
2023-12-14T14:19:57.231Z,98039.84
2023-12-14T14:22:41.935Z,98041.59
2023-12-14T14:25:27.270Z,98041.78
2023-12-14T14:28:12.058Z,98054.47
2023-12-14T14:30:56.818Z,98044.34
2023-12-14T14:33:41.926Z,98062.47
2023-12-14T14:36:26.941Z,98053.09
2023-12-14T14:39:11.669Z,98071.06
2023-12-14T14:41:56.630Z,98060.91
2023-12-14T14:44:41.830Z,98075.75
2023-12-14T14:47:28.529Z,98084.91
2023-12-14T14:50:13.550Z,98070.25
2023-12-14T14:52:58.709Z,98095.25
2023-12-14T14:55:44.565Z,98100.94
2023-12-14T14:58:29.397Z,98092.13
2023-12-14T15:01:14.265Z,98107.75
2023-12-14T15:04:00.331Z,98103.44
2023-12-14T15:06:45.602Z,98106.56
2023-12-14T15:09:30.364Z,98125.50
2023-12-14T15:12:15.286Z,98120.41
2023-12-14T15:15:00.169Z,98138.19
2023-12-14T15:17:45.946Z,98145.41
2023-12-14T15:20:30.858Z,98131.13
2023-12-14T15:23:15.567Z,98145.16
2023-12-14T15:26:00.794Z,98134.97
2023-12-14T15:28:45.510Z,98139.09
2023-12-14T15:31:30.903Z,98135.56
2023-12-14T15:34:15.648Z,98156.59
2023-12-14T15:37:00.298Z,98157.53
2023-12-14T15:39:48.849Z,98141.91
2023-12-14T15:42:33.897Z,98151.31
2023-12-14T15:45:18.548Z,98159.13
2023-12-14T15:48:03.939Z,98153.63
2023-12-14T15:50:49.227Z,98162.41
2023-12-14T15:53:34.234Z,98173.09
2023-12-14T15:56:19.128Z,98152.13
2023-12-14T15:59:04.566Z,98162.25
2023-12-14T16:01:49.975Z,98164.56
2023-12-14T16:04:35.095Z,98176.47
2023-12-14T16:07:19.784Z,98182.53
2023-12-14T16:10:05.622Z,98171.16
2023-12-14T16:12:51.829Z,98188.91
2023-12-14T16:15:36.511Z,98184.78
2023-12-14T16:18:22.701Z,98195.72
2023-12-14T16:21:08.292Z,98212.72
2023-12-14T16:23:53.352Z,98219.16
2023-12-14T16:26:42.126Z,98234.81
2023-12-14T16:29:27.514Z,98234.31
2023-12-14T16:32:12.284Z,98251.09
2023-12-14T16:34:57.737Z,98240.88
2023-12-14T16:37:42.582Z,98247.38
2023-12-14T16:40:27.454Z,98260.72
2023-12-14T16:43:16.460Z,98259.56
2023-12-14T16:46:01.149Z,98265.09
2023-12-14T16:48:50.438Z,98262.31
2023-12-14T16:51:35.588Z,98254.50
2023-12-14T16:54:20.434Z,98275.22
2023-12-14T16:57:08.368Z,98266.59
2023-12-14T16:59:54.004Z,98272.81
2023-12-14T17:02:39.369Z,98285.91
2023-12-14T17:05:24.586Z,98273.00
2023-12-14T17:08:09.582Z,98279.63
2023-12-14T17:10:56.147Z,98296.50
2023-12-14T17:13:41.140Z,98295.25
2023-12-14T17:16:25.976Z,98301.75
2023-12-14T17:19:11.164Z,98292.44
2023-12-14T17:21:55.995Z,98308.72
2023-12-14T17:24:40.795Z,98313.31
2023-12-14T17:27:26.774Z,98299.00
2023-12-14T17:30:12.467Z,98329.06
2023-12-14T17:32:57.723Z,98334.59
2023-12-14T17:35:42.938Z,98340.09
2023-12-14T17:38:27.744Z,98338.13
2023-12-14T17:41:15.260Z,98348.25
2023-12-14T17:44:00.142Z,98343.59
2023-12-14T17:46:45.089Z,98357.53
2023-12-14T17:49:30.162Z,98340.53
2023-12-14T17:52:15.034Z,98363.56
2023-12-14T17:55:01.999Z,98361.09
2023-12-14T17:57:48.152Z,98366.66
2023-12-14T18:00:32.945Z,98381.97
2023-12-14T18:03:18.794Z,98377.03
2023-12-14T18:06:03.680Z,98383.47
2023-12-14T18:08:48.709Z,98370.47
2023-12-14T18:11:33.699Z,98389.56
2023-12-14T18:14:19.117Z,98397.28
2023-12-14T18:17:04.284Z,98389.34
2023-12-14T18:19:49.055Z,98406.06
2023-12-14T18:22:33.760Z,98409.97
2023-12-14T18:25:22.687Z,98409.00
2023-12-14T18:28:07.858Z,98414.00
2023-12-14T18:30:52.510Z,98425.94
2023-12-14T18:33:39.246Z,98435.31
2023-12-14T18:36:24.113Z,98428.97
2023-12-14T18:39:08.926Z,98446.16
2023-12-14T18:41:53.901Z,98430.09
2023-12-14T18:44:39.064Z,98447.09
2023-12-14T18:47:23.722Z,98435.44
2023-12-14T18:50:08.924Z,98453.41
2023-12-14T18:52:57.201Z,98459.22
2023-12-14T18:55:42.052Z,98449.19
2023-12-14T18:58:26.879Z,98452.31
2023-12-14T19:01:12.249Z,98463.91
2023-12-14T19:03:58.250Z,98446.41
2023-12-14T19:06:43.011Z,98449.09
2023-12-14T19:09:27.772Z,98474.41
2023-12-14T19:12:12.474Z,98477.56
2023-12-14T19:14:57.269Z,98481.91
2023-12-14T19:17:43.024Z,98488.72
2023-12-14T19:20:28.652Z,98498.41
2023-12-14T19:23:13.553Z,98495.97
2023-12-14T19:25:58.815Z,98509.94
2023-12-14T19:28:44.607Z,98494.44
2023-12-14T19:31:29.378Z,98500.50
2023-12-14T19:34:14.650Z,98509.84
2023-12-14T19:36:59.465Z,98498.25
2023-12-14T19:39:44.674Z,98523.91
2023-12-14T19:42:31.239Z,98510.97
2023-12-14T19:45:17.548Z,98516.25
2023-12-14T19:48:02.579Z,98524.25
2023-12-14T19:50:47.310Z,98526.72
2023-12-14T19:53:32.277Z,98510.91
2023-12-14T19:56:18.561Z,98527.94
2023-12-14T19:59:03.957Z,98542.44
2023-12-14T20:01:48.445Z,98543.72
2023-12-14T20:04:33.574Z,98547.78
2023-12-14T20:07:19.756Z,98551.31
2023-12-14T20:10:05.521Z,98546.69
2023-12-14T20:12:50.709Z,98547.84
2023-12-14T20:15:36.654Z,98569.22
2023-12-14T20:18:22.122Z,98559.38
2023-12-14T20:21:07.227Z,98560.59
2023-12-14T20:23:51.940Z,98570.38
2023-12-14T20:26:37.061Z,98573.16
2023-12-14T20:29:22.088Z,98582.09
2023-12-14T20:32:07.341Z,98572.84
2023-12-14T20:34:54.335Z,98575.44
2023-12-14T20:37:39.871Z,98580.25
2023-12-14T20:40:27.105Z,98596.50
2023-12-14T20:43:12.077Z,98590.56
2023-12-14T20:45:58.037Z,98604.88
2023-12-14T20:48:43.087Z,98586.63
2023-12-14T20:51:29.825Z,98597.38
2023-12-14T20:54:14.938Z,98608.56
2023-12-14T20:57:00.054Z,98607.97
2023-12-14T20:59:44.949Z,98623.84
2023-12-14T21:02:29.885Z,98629.72
2023-12-14T21:05:15.086Z,98632.69
2023-12-14T21:07:59.870Z,98632.84
2023-12-14T21:10:44.802Z,98644.03
2023-12-14T21:13:29.884Z,98662.56
2023-12-14T21:16:15.024Z,98666.03
2023-12-14T21:18:59.858Z,98669.38
2023-12-14T21:21:44.994Z,98670.59
2023-12-14T21:24:30.488Z,98681.34
2023-12-14T21:27:34.675Z,98687.19
2023-12-14T21:30:20.502Z,98656.97
2023-12-14T21:33:05.380Z,98663.00
2023-12-14T21:35:52.360Z,98689.31
2023-12-14T21:38:37.531Z,98678.44
2023-12-14T21:41:22.474Z,98715.50
2023-12-14T21:44:07.893Z,98701.72
2023-12-14T21:46:53.255Z,98720.44
2023-12-14T21:49:38.814Z,98722.44
2023-12-14T21:52:24.563Z,98734.66
2023-12-14T21:55:09.661Z,98731.19
2023-12-14T21:57:54.482Z,98744.91
2023-12-14T22:00:39.740Z,98750.47
2023-12-14T22:03:27.508Z,98741.66
2023-12-14T22:06:14.804Z,98754.84
2023-12-14T22:08:59.665Z,98756.09
2023-12-14T22:11:45.008Z,98744.13
2023-12-14T22:14:29.670Z,98756.38
2023-12-14T22:17:14.588Z,98761.66
2023-12-14T22:19:59.822Z,98751.53
2023-12-14T22:22:45.066Z,98773.47
2023-12-14T22:25:30.033Z,98778.13
2023-12-14T22:28:15.022Z,98774.28
2023-12-14T22:30:59.947Z,98781.09
2023-12-14T22:33:45.003Z,98784.41
2023-12-14T22:36:30.065Z,98781.59
2023-12-14T22:39:15.336Z,98779.59
2023-12-14T22:42:01.898Z,98806.28
2023-12-14T22:44:48.212Z,98797.88
2023-12-14T22:47:33.237Z,98780.22
2023-12-14T22:50:18.340Z,98801.22
2023-12-14T22:53:07.328Z,98813.34
2023-12-14T22:55:57.742Z,98808.81
2023-12-14T22:58:42.612Z,98804.94
2023-12-14T23:01:31.353Z,98825.78
2023-12-14T23:04:16.633Z,98812.63
2023-12-14T23:07:02.476Z,98829.81
2023-12-14T23:09:47.621Z,98829.09
2023-12-14T23:12:32.535Z,98820.97
2023-12-14T23:15:17.613Z,98823.78
2023-12-14T23:18:03.087Z,98837.50
2023-12-14T23:20:47.577Z,98837.78
2023-12-14T23:23:32.807Z,98837.50
2023-12-14T23:26:17.961Z,98845.22
2023-12-14T23:29:02.951Z,98828.84
2023-12-14T23:31:48.220Z,98823.94
2023-12-14T23:34:33.080Z,98826.84
2023-12-14T23:37:19.731Z,98844.16
2023-12-14T23:40:05.167Z,98843.03
2023-12-14T23:42:49.675Z,98851.06
2023-12-14T23:45:34.321Z,98842.75
2023-12-14T23:48:19.377Z,98855.78
2023-12-14T23:51:04.670Z,98868.41
2023-12-14T23:53:49.494Z,98866.00
2023-12-14T23:56:34.488Z,98862.97
2023-12-14T23:59:19.296Z,98879.75
